Time;durP1;ratioP1;P1;durP2;ratioP2;P2;SDS_P1;SDS_P2;PMS_P1;PMS_P2;Temp;Humidity;BMP_temperature;BMP_pressure;BME280_temperature;BME280_humidity;BME280_pressure;Samples;Min_cycle;Max_cycle;Signal;HPM_P1;HPM_P2
2020/12/02 00:00:41;;;;;;;43.47;27.45;;;0.80;99.90;;;;;;5041508;28;20639;-80
2020/12/02 00:03:13;;;;;;;41.03;27.02;;;0.80;99.90;;;;;;5040061;28;20200;-80
2020/12/02 00:05:44;;;;;;;41.45;25.63;;;0.60;99.90;;;;;;5039792;28;20206;-80
2020/12/02 00:08:12;;;;;;;43.40;27.30;;;0.70;99.90;;;;;;5039947;28;20227;-80
2020/12/02 00:10:39;;;;;;;42.15;28.38;;;0.60;99.90;;;;;;5038779;28;20203;-79
2020/12/02 00:13:06;;;;;;;42.97;26.95;;;0.60;99.90;;;;;;5039987;28;20251;-80
2020/12/02 00:15:34;;;;;;;42.83;26.75;;;0.70;99.90;;;;;;5043750;28;20292;-80
2020/12/02 00:18:00;;;;;;;84.15;29.52;;;0.70;99.90;;;;;;5042266;28;20642;-79
2020/12/02 00:20:26;;;;;;;46.97;29.60;;;0.70;99.90;;;;;;5044397;28;20227;-81
2020/12/02 00:22:53;;;;;;;44.63;27.92;;;0.60;99.90;;;;;;5040002;28;20286;-80
2020/12/02 00:25:19;;;;;;;49.95;29.08;;;0.60;99.90;;;;;;5038939;28;20204;-79
2020/12/02 00:27:46;;;;;;;44.28;29.13;;;0.70;99.90;;;;;;5039438;28;20227;-77
2020/12/02 00:30:14;;;;;;;52.35;29.58;;;0.80;99.90;;;;;;5045611;28;20199;-80
2020/12/02 00:32:46;;;;;;;60.67;32.00;;;0.90;99.90;;;;;;5047950;28;20223;-80
2020/12/02 00:35:15;;;;;;;41.95;26.73;;;1.00;99.90;;;;;;5043587;28;20192;-79
2020/12/02 00:37:42;;;;;;;48.25;28.45;;;0.80;99.90;;;;;;5039949;28;20291;-78
2020/12/02 00:40:10;;;;;;;49.53;29.25;;;0.70;99.90;;;;;;5039357;28;20200;-80
2020/12/02 00:42:36;;;;;;;46.50;31.55;;;0.60;99.90;;;;;;5038875;28;20206;-79
2020/12/02 00:45:03;;;;;;;48.38;29.73;;;0.60;99.90;;;;;;5038356;28;20204;-79
2020/12/02 00:47:30;;;;;;;49.47;30.70;;;0.60;99.90;;;;;;5038746;28;20228;-79
2020/12/02 00:49:58;;;;;;;54.90;30.48;;;0.60;99.90;;;;;;5037976;28;20203;-80
2020/12/02 00:52:25;;;;;;;48.25;29.38;;;0.60;99.90;;;;;;5039390;28;20208;-80
2020/12/02 00:54:52;;;;;;;55.10;31.13;;;0.50;99.90;;;;;;5038463;28;20203;-79
2020/12/02 00:57:22;;;;;;;45.45;28.45;;;0.50;99.90;;;;;;5038417;28;20592;-80
2020/12/02 00:59:53;;;;;;;51.92;30.98;;;0.60;99.90;;;;;;5037727;28;20226;-80
2020/12/02 01:02:26;;;;;;;47.60;27.83;;;0.50;99.90;;;;;;5037931;28;20251;-80
2020/12/02 01:04:53;;;;;;;45.03;28.95;;;0.50;99.90;;;;;;5038449;28;20562;-79
2020/12/02 01:07:21;;;;;;;49.42;30.30;;;0.50;99.90;;;;;;5037429;28;20719;-80
2020/12/02 01:09:47;;;;;;;49.63;30.30;;;0.70;99.90;;;;;;5038062;28;20283;-80
2020/12/02 01:12:17;;;;;;;45.80;29.35;;;0.70;99.90;;;;;;5037310;28;20214;-80
2020/12/02 01:14:44;;;;;;;51.08;31.05;;;0.60;99.90;;;;;;5038855;28;20203;-80
2020/12/02 01:17:13;;;;;;;45.10;27.30;;;0.60;99.90;;;;;;5037458;28;20228;-79
2020/12/02 01:19:40;;;;;;;47.70;27.52;;;0.50;99.90;;;;;;5037640;28;20210;-80
2020/12/02 01:22:12;;;;;;;47.13;29.38;;;0.40;99.90;;;;;;5037295;28;20203;-78
2020/12/02 01:24:51;;;;;;;45.45;28.17;;;0.40;99.90;;;;;;5038111;28;20184;-79
2020/12/02 01:27:22;;;;;;;43.13;28.63;;;0.30;99.90;;;;;;5037697;28;20245;-80
2020/12/02 01:29:50;;;;;;;50.67;30.38;;;0.60;99.90;;;;;;5041035;28;20192;-81
2020/12/02 01:32:17;;;;;;;46.75;27.55;;;0.70;99.90;;;;;;5041840;28;20553;-80
2020/12/02 01:34:48;;;;;;;40.42;26.58;;;0.70;99.90;;;;;;5037575;28;20199;-79
2020/12/02 01:37:27;;;;;;;40.33;27.17;;;0.60;99.90;;;;;;5037471;28;20258;-80
2020/12/02 01:40:12;;;;;;;43.35;28.15;;;0.50;99.90;;;;;;5038190;28;20247;-79
2020/12/02 01:42:40;;;;;;;40.92;27.15;;;0.60;99.90;;;;;;5037083;28;20271;-79
2020/12/02 01:45:20;;;;;;;47.22;28.70;;;0.60;99.90;;;;;;5037477;28;20207;-79
2020/12/02 01:47:58;;;;;;;41.03;27.00;;;0.60;99.90;;;;;;5038196;28;20310;-80
2020/12/02 01:50:33;;;;;;;45.13;29.20;;;0.60;99.90;;;;;;5051155;28;20188;-81
2020/12/02 01:53:07;;;;;;;49.95;31.05;;;0.40;99.90;;;;;;5043961;28;20302;-79
2020/12/02 01:55:39;;;;;;;49.00;27.77;;;0.20;99.90;;;;;;5042345;28;20279;-80
2020/12/02 01:58:14;;;;;;;46.70;27.25;;;0.20;99.90;;;;;;5038606;28;20774;-81
2020/12/02 02:00:43;;;;;;;42.17;27.38;;;0.30;99.90;;;;;;5037218;28;20191;-81
2020/12/02 02:03:13;;;;;;;43.35;28.60;;;0.20;99.90;;;;;;5037276;28;20196;-79
2020/12/02 02:05:47;;;;;;;43.80;28.23;;;0.30;99.90;;;;;;5036724;28;20210;-80
2020/12/02 02:08:14;;;;;;;40.60;26.73;;;0.10;99.90;;;;;;5036831;28;20229;-80
2020/12/02 02:10:46;;;;;;;47.20;28.88;;;0.00;99.90;;;;;;5035802;28;20676;-80
2020/12/02 02:13:52;;;;;;;44.88;28.52;;;0.30;99.90;;;;;;5036578;28;20211;-81
2020/12/02 02:16:21;;;;;;;49.20;27.50;;;0.30;99.90;;;;;;5036476;28;20205;-79
2020/12/02 02:18:48;;;;;;;38.65;27.00;;;0.20;99.90;;;;;;5036167;28;20233;-78
2020/12/02 02:21:17;;;;;;;51.00;28.95;;;0.20;99.90;;;;;;5036094;28;20231;-80
2020/12/02 02:23:43;;;;;;;46.70;27.90;;;0.30;99.90;;;;;;5035385;28;20643;-80
2020/12/02 02:26:21;;;;;;;46.80;28.77;;;0.30;99.90;;;;;;5036256;28;20668;-80
2020/12/02 02:28:53;;;;;;;43.95;27.70;;;0.40;99.90;;;;;;5036211;28;20250;-80
2020/12/02 02:31:24;;;;;;;43.45;27.88;;;0.40;99.90;;;;;;5035916;28;20278;-79
2020/12/02 02:33:52;;;;;;;45.20;26.02;;;0.20;99.90;;;;;;5036578;28;20644;-80
2020/12/02 02:36:23;;;;;;;48.40;29.65;;;0.20;99.90;;;;;;5035919;28;20209;-80
2020/12/02 02:38:49;;;;;;;45.80;28.73;;;0.30;99.90;;;;;;5036662;28;20720;-80
2020/12/02 02:41:18;;;;;;;44.78;28.38;;;0.30;99.90;;;;;;5036766;28;20223;-80
2020/12/02 02:43:44;;;;;;;48.45;27.45;;;0.40;99.90;;;;;;5039751;28;20207;-80
2020/12/02 02:46:11;;;;;;;45.28;29.13;;;0.40;99.90;;;;;;5039626;28;20207;-80
2020/12/02 02:48:37;;;;;;;44.92;28.15;;;0.40;99.90;;;;;;5040093;28;20230;-80
2020/12/02 02:51:04;;;;;;;52.08;31.10;;;0.40;99.90;;;;;;5039962;28;20213;-79
2020/12/02 02:53:30;;;;;;;48.55;29.42;;;0.30;99.90;;;;;;5039982;28;20219;-80
2020/12/02 02:55:57;;;;;;;45.20;29.83;;;0.40;99.90;;;;;;5039803;28;20597;-80
2020/12/02 02:58:26;;;;;;;51.58;28.45;;;0.40;99.90;;;;;;5038894;28;20241;-80
2020/12/02 03:00:53;;;;;;;49.28;30.88;;;0.40;99.90;;;;;;5040115;28;20212;-79
2020/12/02 03:03:20;;;;;;;56.78;30.48;;;0.40;99.90;;;;;;5041448;28;20718;-79
2020/12/02 03:05:47;;;;;;;50.67;31.35;;;0.40;99.90;;;;;;5041568;28;20286;-79
2020/12/02 03:08:15;;;;;;;46.65;28.98;;;0.50;99.90;;;;;;5042470;28;20322;-79
2020/12/02 03:10:43;;;;;;;43.70;27.75;;;0.50;99.90;;;;;;5042645;28;20294;-79
2020/12/02 03:13:20;;;;;;;45.88;27.77;;;0.30;99.90;;;;;;5040803;28;20219;-79
2020/12/02 03:15:48;;;;;;;46.97;29.58;;;0.30;99.90;;;;;;5039338;28;20607;-80
2020/12/02 03:18:15;;;;;;;43.63;26.77;;;0.30;99.90;;;;;;5039231;28;20779;-79
2020/12/02 03:20:46;;;;;;;44.28;27.13;;;0.30;99.90;;;;;;5039543;28;20242;-80
2020/12/02 03:23:14;;;;;;;50.53;28.75;;;0.30;99.90;;;;;;5039131;28;20184;-79
2020/12/02 03:25:43;;;;;;;49.63;29.73;;;0.30;99.90;;;;;;5039384;28;20290;-79
2020/12/02 03:28:10;;;;;;;49.97;29.20;;;0.40;99.90;;;;;;5039190;28;20223;-80
2020/12/02 03:30:37;;;;;;;46.75;27.67;;;0.30;99.90;;;;;;5040283;28;20192;-78
2020/12/02 03:33:06;;;;;;;44.72;28.83;;;0.30;99.90;;;;;;5043836;28;20227;-80
2020/12/02 03:35:32;;;;;;;44.78;27.70;;;0.30;99.90;;;;;;5041059;28;20210;-80
2020/12/02 03:37:59;;;;;;;56.30;29.80;;;0.30;99.90;;;;;;5042985;28;20254;-80
2020/12/02 03:40:25;;;;;;;44.97;29.05;;;0.30;99.90;;;;;;5047284;28;20204;-80
2020/12/02 03:42:51;;;;;;;46.78;29.35;;;0.30;99.90;;;;;;5045201;28;20199;-79
2020/12/02 03:45:18;;;;;;;46.13;29.15;;;0.20;99.90;;;;;;5042864;28;20199;-78
2020/12/02 03:47:45;;;;;;;50.03;28.02;;;0.30;99.90;;;;;;5042394;28;20224;-80
2020/12/02 03:50:13;;;;;;;44.67;29.52;;;0.30;99.90;;;;;;5039575;28;20298;-79
2020/12/02 03:52:40;;;;;;;50.00;29.40;;;0.30;99.90;;;;;;5038503;28;20211;-78
2020/12/02 03:55:07;;;;;;;46.67;29.17;;;0.10;99.90;;;;;;5038707;28;20203;-79
2020/12/02 03:57:34;;;;;;;44.38;26.75;;;0.20;99.90;;;;;;5038244;28;20256;-79
2020/12/02 04:00:00;;;;;;;49.17;30.70;;;0.20;99.90;;;;;;5038562;28;20200;-79
2020/12/02 04:02:27;;;;;;;51.95;28.52;;;0.10;99.90;;;;;;5038620;28;20207;-80
2020/12/02 04:04:54;;;;;;;49.05;28.65;;;0.10;99.90;;;;;;5038225;28;20210;-80
2020/12/02 04:07:21;;;;;;;45.35;27.58;;;0.20;99.90;;;;;;5037981;28;20220;-80
2020/12/02 04:09:47;;;;;;;45.25;26.48;;;0.20;99.90;;;;;;5038296;28;20208;-80
2020/12/02 04:12:13;;;;;;;45.67;29.35;;;0.20;99.90;;;;;;5038792;28;20233;-79
2020/12/02 04:14:40;;;;;;;53.60;28.92;;;0.10;99.90;;;;;;5038931;28;20228;-79
2020/12/02 04:17:06;;;;;;;49.03;29.50;;;0.10;99.90;;;;;;5042821;28;20296;-79
2020/12/02 04:19:32;;;;;;;51.58;31.50;;;0.00;99.90;;;;;;5053043;28;20214;-78
2020/12/02 04:21:59;;;;;;;48.38;29.23;;;0.00;99.90;;;;;;5050487;28;20311;-79
2020/12/02 04:24:26;;;;;;;49.17;31.30;;;-0.20;99.90;;;;;;5047023;28;20582;-79
2020/12/02 04:26:53;;;;;;;60.88;31.42;;;-0.10;99.90;;;;;;5038032;28;20298;-79
2020/12/02 04:29:19;;;;;;;53.72;29.58;;;0.00;99.90;;;;;;5037986;28;20204;-79
2020/12/02 04:31:45;;;;;;;52.60;32.13;;;0.00;99.90;;;;;;5038742;28;20271;-79
2020/12/02 04:34:11;;;;;;;54.55;31.15;;;0.10;99.90;;;;;;5038081;28;20223;-80
2020/12/02 04:36:47;;;;;;;52.65;30.77;;;0.10;99.90;;;;;;5039020;28;20204;-80
2020/12/02 04:39:13;;;;;;;54.10;31.75;;;0.10;99.90;;;;;;5038459;28;20274;-79
2020/12/02 04:41:41;;;;;;;55.88;31.08;;;0.10;99.90;;;;;;5038103;28;20664;-79
2020/12/02 04:44:10;;;;;;;50.45;27.83;;;0.00;99.90;;;;;;5038881;28;20572;-79
2020/12/02 04:46:38;;;;;;;43.65;25.02;;;0.00;99.90;;;;;;5041008;28;20203;-79
2020/12/02 04:49:14;;;;;;;47.80;29.08;;;-0.20;99.90;;;;;;5039514;28;20223;-79
2020/12/02 04:51:41;;;;;;;50.15;27.10;;;-0.30;99.90;;;;;;5039120;28;20666;-80
2020/12/02 04:54:09;;;;;;;49.60;30.45;;;-0.30;99.90;;;;;;5038348;28;20219;-80
2020/12/02 04:56:39;;;;;;;55.35;30.42;;;-0.20;99.90;;;;;;5038130;28;20206;-79
2020/12/02 04:59:06;;;;;;;53.05;29.70;;;-0.20;99.90;;;;;;5079344;22;20235;-77
2020/12/02 05:01:35;;;;;;;56.55;32.40;;;0.00;99.90;;;;;;5058977;28;20294;-77
2020/12/02 05:04:04;;;;;;;50.72;31.27;;;0.00;99.90;;;;;;5059184;28;20310;-78
2020/12/02 05:06:35;;;;;;;53.42;31.83;;;0.00;99.90;;;;;;5058177;28;20700;-77
2020/12/02 05:09:11;;;;;;;57.58;32.63;;;0.00;99.90;;;;;;5063029;28;20223;-77
2020/12/02 05:11:38;;;;;;;51.45;31.08;;;0.10;99.90;;;;;;5063759;28;20258;-77
2020/12/02 05:14:11;;;;;;;47.25;30.40;;;0.10;99.90;;;;;;5066182;28;20309;-77
2020/12/02 05:16:37;;;;;;;51.35;32.63;;;0.00;99.90;;;;;;5068265;28;20254;-77
2020/12/02 05:19:06;;;;;;;54.35;31.92;;;0.10;99.90;;;;;;5068755;28;20219;-77
2020/12/02 05:21:40;;;;;;;49.28;29.58;;;0.10;99.90;;;;;;5066913;28;20262;-77
2020/12/02 05:24:13;;;;;;;50.13;30.83;;;0.10;99.90;;;;;;5066088;28;20179;-77
2020/12/02 05:26:42;;;;;;;52.17;31.02;;;0.20;99.90;;;;;;5067335;28;20191;-77
2020/12/02 05:29:29;;;;;;;44.35;27.33;;;0.10;99.90;;;;;;5067330;28;20223;-77
2020/12/02 05:32:02;;;;;;;51.00;28.30;;;0.00;99.90;;;;;;5067747;28;20188;-77
2020/12/02 05:34:31;;;;;;;59.08;30.88;;;0.00;99.90;;;;;;5068014;28;20242;-77
2020/12/02 05:37:00;;;;;;;48.85;31.55;;;0.00;99.90;;;;;;5068329;28;20253;-78
2020/12/02 05:39:41;;;;;;;48.50;29.52;;;0.00;99.90;;;;;;5068659;28;20375;-77
2020/12/02 05:42:18;;;;;;;52.78;29.30;;;0.00;99.90;;;;;;5068358;28;20531;-77
2020/12/02 05:44:45;;;;;;;50.15;28.35;;;0.00;99.90;;;;;;5065423;28;20255;-77
2020/12/02 05:47:16;;;;;;;53.45;31.75;;;-0.20;99.90;;;;;;5065340;28;20217;-77
2020/12/02 05:49:49;;;;;;;54.72;31.17;;;-0.10;99.90;;;;;;5066119;28;20226;-78
2020/12/02 05:52:21;;;;;;;55.80;30.75;;;-0.20;99.90;;;;;;5057532;28;20193;-78
2020/12/02 05:54:49;;;;;;;54.20;31.90;;;-0.10;99.90;;;;;;5055545;28;20626;-77
2020/12/02 05:57:18;;;;;;;54.15;31.67;;;-0.10;99.90;;;;;;5054704;28;20222;-77
2020/12/02 05:59:48;;;;;;;46.47;30.02;;;0.00;99.90;;;;;;5054970;28;20221;-77
2020/12/02 06:02:16;;;;;;;53.67;32.70;;;0.10;99.90;;;;;;5055504;28;20207;-77
2020/12/02 06:04:43;;;;;;;52.80;28.15;;;0.10;99.90;;;;;;5054945;28;20202;-78
2020/12/02 06:07:09;;;;;;;48.08;30.13;;;-0.10;99.90;;;;;;5062106;28;20241;-77
2020/12/02 06:09:41;;;;;;;54.38;32.53;;;0.00;99.90;;;;;;5065210;28;20270;-78
2020/12/02 06:12:12;;;;;;;47.10;29.08;;;0.00;99.90;;;;;;5059572;28;20206;-78
2020/12/02 06:14:38;;;;;;;54.08;32.00;;;0.00;99.90;;;;;;5059651;28;20670;-77
2020/12/02 06:17:09;;;;;;;49.40;32.20;;;0.00;99.90;;;;;;5058236;28;20207;-78
2020/12/02 06:19:48;;;;;;;61.78;31.88;;;-0.10;99.90;;;;;;5058865;28;20214;-78
2020/12/02 06:22:26;;;;;;;58.05;31.13;;;-0.20;99.90;;;;;;5059950;28;20202;-79
2020/12/02 06:24:52;;;;;;;59.45;33.88;;;-0.20;99.90;;;;;;5061515;28;20179;-78
2020/12/02 06:27:40;;;;;;;49.13;29.52;;;-0.30;99.90;;;;;;5059916;28;20301;-78
2020/12/02 06:30:20;;;;;;;59.63;33.88;;;-0.30;99.90;;;;;;5058771;28;20213;-78
2020/12/02 06:33:03;;;;;;;55.55;33.05;;;-0.40;99.90;;;;;;5059223;28;20242;-78
2020/12/02 06:35:29;;;;;;;49.05;30.95;;;-0.40;99.90;;;;;;5057743;28;20197;-78
2020/12/02 06:38:24;;;;;;;57.97;32.92;;;-0.40;99.90;;;;;;5056666;28;20738;-78
2020/12/02 06:41:31;;;;;;;57.85;33.95;;;-0.40;99.90;;;;;;5056163;28;20198;-78
2020/12/02 06:44:07;;;;;;;58.63;34.67;;;-0.40;99.90;;;;;;5061180;28;20198;-78
2020/12/02 06:46:56;;;;;;;63.33;38.90;;;-0.30;99.90;;;;;;5065631;28;20213;-77
2020/12/02 06:49:25;;;;;;;59.70;35.00;;;0.00;99.90;;;;;;5066293;28;20491;-78
2020/12/02 06:51:56;;;;;;;52.45;31.80;;;0.00;99.90;;;;;;5065795;28;20976;-78
2020/12/02 06:54:23;;;;;;;53.13;32.65;;;0.00;99.90;;;;;;5059203;28;20233;-78
2020/12/02 06:56:57;;;;;;;49.60;30.98;;;0.10;99.90;;;;;;5064925;28;20225;-78
2020/12/02 06:59:23;;;;;;;48.15;30.77;;;0.00;99.90;;;;;;5067045;28;20241;-78
2020/12/02 07:01:50;;;;;;;51.65;30.20;;;-0.20;99.90;;;;;;5056164;28;20199;-78
2020/12/02 07:04:22;;;;;;;51.40;31.58;;;-0.10;99.90;;;;;;5054707;28;20230;-78
2020/12/02 07:06:58;;;;;;;57.38;30.88;;;-0.20;99.90;;;;;;5054563;28;20183;-78
2020/12/02 07:09:24;;;;;;;50.03;30.00;;;-0.10;99.90;;;;;;5054704;28;20202;-78
2020/12/02 07:11:56;;;;;;;51.30;29.83;;;-0.20;99.90;;;;;;5054350;28;20199;-78
2020/12/02 07:14:27;;;;;;;54.95;32.03;;;-0.30;99.90;;;;;;5055332;28;20215;-79
2020/12/02 07:16:58;;;;;;;59.47;33.13;;;-0.30;99.90;;;;;;5054721;28;20271;-78
2020/12/02 07:19:27;;;;;;;63.28;34.65;;;-0.30;99.90;;;;;;5055962;28;20586;-78
2020/12/02 07:21:59;;;;;;;57.38;32.95;;;-0.30;99.90;;;;;;5055103;28;20209;-78
2020/12/02 07:24:28;;;;;;;63.75;34.00;;;-0.30;99.90;;;;;;5054371;28;20660;-78
2020/12/02 07:26:55;;;;;;;68.95;35.78;;;0.00;99.90;;;;;;5054266;28;20229;-78
2020/12/02 07:29:24;;;;;;;63.10;34.55;;;0.10;99.90;;;;;;5056036;28;20759;-79
2020/12/02 07:31:58;;;;;;;64.07;34.55;;;0.20;99.90;;;;;;5058012;28;20213;-78
2020/12/02 07:34:25;;;;;;;59.67;33.60;;;0.20;99.90;;;;;;5058758;28;20206;-78
2020/12/02 07:36:59;;;;;;;58.60;36.40;;;0.20;99.90;;;;;;5058965;28;20202;-78
2020/12/02 07:39:26;;;;;;;61.28;37.05;;;0.30;99.90;;;;;;5058212;28;20199;-79
2020/12/02 07:42:05;;;;;;;57.92;34.13;;;0.20;99.90;;;;;;5059190;28;20667;-78
2020/12/02 07:44:37;;;;;;;80.55;36.42;;;0.20;99.90;;;;;;5063572;28;20191;-77
2020/12/02 07:47:07;;;;;;;56.05;33.20;;;0.20;99.90;;;;;;5057982;28;20274;-78
2020/12/02 07:49:36;;;;;;;53.03;32.90;;;0.20;99.90;;;;;;5057598;28;20187;-78
2020/12/02 07:52:15;;;;;;;48.33;31.40;;;0.30;99.90;;;;;;5056829;28;20578;-78
2020/12/02 07:54:41;;;;;;;54.28;34.70;;;0.30;99.90;;;;;;5055962;28;20214;-77
2020/12/02 07:57:14;;;;;;;61.55;33.10;;;0.30;99.90;;;;;;5057450;28;20221;-78
2020/12/02 07:59:47;;;;;;;58.65;36.28;;;0.40;99.90;;;;;;5060953;28;20602;-78
2020/12/02 08:02:21;;;;;;;58.88;34.97;;;0.50;99.90;;;;;;5063579;28;20187;-78
2020/12/02 08:04:58;;;;;;;65.55;35.25;;;0.50;99.90;;;;;;5064561;28;20285;-78
2020/12/02 08:07:44;;;;;;;60.50;34.30;;;0.50;99.90;;;;;;5062593;28;20284;-78
2020/12/02 08:10:23;;;;;;;65.57;37.83;;;0.50;99.90;;;;;;5064811;28;20266;-78
2020/12/02 08:12:50;;;;;;;60.13;32.72;;;0.50;99.90;;;;;;5064581;28;20187;-78
2020/12/02 08:15:17;;;;;;;61.50;34.30;;;0.40;99.90;;;;;;5059719;28;20250;-78
2020/12/02 08:18:11;;;;;;;57.97;33.00;;;0.40;99.90;;;;;;5057462;28;20314;-78
2020/12/02 08:20:38;;;;;;;85.20;37.35;;;0.50;99.90;;;;;;5056833;28;20188;-78
2020/12/02 08:23:09;;;;;;;72.60;36.45;;;0.60;99.90;;;;;;5056825;28;20543;-78
2020/12/02 08:25:38;;;;;;;69.22;38.45;;;0.60;99.90;;;;;;5056601;28;20873;-78
2020/12/02 08:28:08;;;;;;;68.35;38.70;;;0.60;99.90;;;;;;5055743;28;20446;-77
2020/12/02 08:30:35;;;;;;;62.65;34.08;;;0.60;99.90;;;;;;5056606;28;20203;-78
2020/12/02 08:33:07;;;;;;;64.35;36.75;;;0.70;99.90;;;;;;5056564;28;20210;-77
2020/12/02 08:35:38;;;;;;;72.68;35.58;;;0.70;99.90;;;;;;5057318;28;20187;-77
2020/12/02 08:38:06;;;;;;;71.43;38.47;;;0.80;99.90;;;;;;5057188;28;20245;-78
2020/12/02 08:40:43;;;;;;;75.28;40.35;;;0.80;99.90;;;;;;5056342;28;20210;-79
2020/12/02 08:43:18;;;;;;;73.13;36.65;;;0.80;99.90;;;;;;5055463;28;20191;-78
2020/12/02 08:46:01;;;;;;;74.00;38.22;;;0.80;99.90;;;;;;5056462;28;20292;-78
2020/12/02 08:48:28;;;;;;;75.43;38.58;;;0.90;99.90;;;;;;5056278;28;20719;-78
2020/12/02 08:50:55;;;;;;;62.17;37.95;;;1.00;99.90;;;;;;5057166;28;20207;-78
2020/12/02 08:53:25;;;;;;;67.47;37.78;;;0.90;99.90;;;;;;5057719;28;20299;-78
2020/12/02 08:55:52;;;;;;;61.17;37.85;;;0.90;99.90;;;;;;5056261;28;20199;-78
2020/12/02 08:58:18;;;;;;;62.60;36.55;;;1.00;99.90;;;;;;5056698;28;20318;-78
2020/12/02 09:00:44;;;;;;;70.50;39.00;;;1.00;99.90;;;;;;5056470;28;20250;-78
2020/12/02 09:03:11;;;;;;;68.50;38.00;;;0.80;99.90;;;;;;5056854;28;20199;-78
2020/12/02 09:05:37;;;;;;;58.80;37.00;;;0.90;99.90;;;;;;5057098;28;20229;-78
2020/12/02 09:08:04;;;;;;;62.40;36.05;;;1.00;99.90;;;;;;5059417;28;20223;-77
2020/12/02 09:10:30;;;;;;;66.63;37.30;;;1.10;99.90;;;;;;5060771;28;20203;-77
2020/12/02 09:12:58;;;;;;;70.05;40.47;;;1.10;99.90;;;;;;5055132;28;20206;-78
2020/12/02 09:15:26;;;;;;;59.13;37.45;;;1.20;99.90;;;;;;5054424;28;20249;-75
2020/12/02 09:17:53;;;;;;;64.93;36.25;;;1.20;99.90;;;;;;5055000;28;20750;-78
2020/12/02 09:20:19;;;;;;;66.40;37.35;;;1.20;99.90;;;;;;5055501;28;20207;-77
2020/12/02 09:22:46;;;;;;;69.60;36.03;;;1.20;99.90;;;;;;5055453;28;20326;-78
2020/12/02 09:25:12;;;;;;;67.13;39.92;;;1.10;99.90;;;;;;5056042;28;20615;-78
2020/12/02 09:27:39;;;;;;;64.35;38.58;;;1.10;99.90;;;;;;5055497;28;20227;-78
2020/12/02 09:30:07;;;;;;;75.85;41.75;;;1.10;99.90;;;;;;5055131;28;20202;-77
2020/12/02 09:32:33;;;;;;;64.53;37.22;;;1.20;99.90;;;;;;5054877;28;20414;-78
2020/12/02 09:34:59;;;;;;;62.50;35.92;;;1.20;99.90;;;;;;5055615;28;20229;-77
2020/12/02 09:37:26;;;;;;;112.32;62.50;;;1.20;99.90;;;;;;5058593;28;20258;-78
2020/12/02 09:39:55;;;;;;;68.40;37.55;;;1.10;99.90;;;;;;5062050;28;20290;-77
2020/12/02 09:42:49;;;;;;;77.15;40.08;;;1.20;99.90;;;;;;5057963;28;20294;-77
2020/12/02 09:45:29;;;;;;;68.75;41.85;;;1.20;99.90;;;;;;5044550;28;20203;-77
2020/12/02 09:47:56;;;;;;;61.75;35.80;;;1.30;99.90;;;;;;5057875;28;20596;-77
2020/12/02 09:50:23;;;;;;;65.82;37.53;;;1.40;99.90;;;;;;5058260;28;20235;-77
2020/12/02 09:52:50;;;;;;;64.45;36.60;;;1.40;99.90;;;;;;5057198;28;20270;-77
2020/12/02 09:55:20;;;;;;;64.03;37.08;;;1.60;99.90;;;;;;5063201;28;20219;-77
2020/12/02 09:57:47;;;;;;;63.88;39.22;;;1.70;99.90;;;;;;5068712;28;20227;-77
2020/12/02 10:00:15;;;;;;;79.57;39.55;;;1.70;99.90;;;;;;5060565;28;20203;-77
2020/12/02 10:03:07;;;;;;;61.85;36.35;;;1.70;99.90;;;;;;5061162;28;20660;-77
2020/12/02 10:06:00;;;;;;;55.78;35.95;;;1.60;99.90;;;;;;5068649;28;20187;-77
2020/12/02 10:08:39;;;;;;;65.50;36.90;;;1.70;99.90;;;;;;5068709;28;20409;-77
2020/12/02 10:11:11;;;;;;;61.45;37.20;;;1.80;99.90;;;;;;5055044;28;20249;-77
2020/12/02 10:14:09;;;;;;;67.22;38.40;;;2.00;99.90;;;;;;5052412;28;20207;-77
2020/12/02 10:16:41;;;;;;;70.05;37.28;;;2.00;99.90;;;;;;5052525;28;20544;-77
2020/12/02 10:19:44;;;;;;;66.75;40.10;;;1.90;99.90;;;;;;5055880;28;20569;-77
2020/12/02 10:22:27;;;;;;;60.72;36.53;;;2.00;99.90;;;;;;5056131;28;20222;-77
2020/12/02 10:25:06;;;;;;;62.38;36.85;;;2.00;99.90;;;;;;5057106;28;20187;-77
2020/12/02 10:28:00;;;;;;;60.58;34.78;;;1.90;99.90;;;;;;5060495;28;20233;-77
2020/12/02 10:30:29;;;;;;;64.75;37.53;;;1.90;99.90;;;;;;5061529;28;20191;-77
2020/12/02 10:33:22;;;;;;;64.45;38.08;;;1.90;99.90;;;;;;5059840;28;20266;-77
2020/12/02 10:35:50;;;;;;;63.35;37.65;;;1.90;99.90;;;;;;5060383;28;20201;-77
2020/12/02 10:38:27;;;;;;;56.28;36.38;;;1.90;99.90;;;;;;5060271;28;20223;-77
2020/12/02 10:41:03;;;;;;;58.40;36.92;;;1.90;99.90;;;;;;5060269;28;20269;-77
2020/12/02 10:43:39;;;;;;;64.15;37.50;;;2.00;99.90;;;;;;5059585;28;20186;-77
2020/12/02 10:46:10;;;;;;;71.32;37.65;;;2.10;99.90;;;;;;5059204;28;20259;-77
2020/12/02 10:48:56;;;;;;;64.47;35.60;;;2.10;99.90;;;;;;5056254;28;20222;-77
2020/12/02 10:51:23;;;;;;;62.83;35.25;;;2.20;99.90;;;;;;5060090;28;20191;-78
2020/12/02 10:53:50;;;;;;;64.93;38.30;;;2.10;99.90;;;;;;5059276;28;20290;-77
2020/12/02 10:56:23;;;;;;;62.60;36.92;;;2.00;99.90;;;;;;5059384;28;20252;-77
2020/12/02 10:58:53;;;;;;;77.15;39.72;;;2.10;99.90;;;;;;5104602;22;20260;-77
2020/12/02 11:01:22;;;;;;;65.60;37.47;;;2.20;99.90;;;;;;5055890;28;20187;-77
2020/12/02 11:03:48;;;;;;;61.67;39.10;;;2.10;99.90;;;;;;5056965;28;20274;-77
2020/12/02 11:06:28;;;;;;;69.03;35.72;;;2.20;99.90;;;;;;5057653;28;20203;-77
2020/12/02 11:09:17;;;;;;;65.28;37.70;;;2.30;99.90;;;;;;5057536;28;20306;-77
2020/12/02 11:12:01;;;;;;;62.53;40.05;;;2.20;99.90;;;;;;5052072;28;20539;-78
2020/12/02 11:14:42;;;;;;;71.97;40.28;;;2.20;99.90;;;;;;5056150;28;20705;-78
2020/12/02 11:17:19;;;;;;;62.15;40.50;;;2.20;99.90;;;;;;5055086;28;20440;-77
2020/12/02 11:19:51;;;;;;;66.10;41.43;;;2.20;99.90;;;;;;5055702;28;20431;-77
2020/12/02 11:22:41;;;;;;;57.13;36.63;;;2.30;99.90;;;;;;5056421;28;20438;-77
2020/12/02 11:25:14;;;;;;;61.67;37.72;;;2.40;99.90;;;;;;5056420;28;20185;-78
2020/12/02 11:27:41;;;;;;;59.50;36.28;;;2.40;99.90;;;;;;5056100;28;20623;-77
2020/12/02 11:30:12;;;;;;;63.92;39.22;;;2.40;99.90;;;;;;5055659;28;20446;-77
2020/12/02 11:33:23;;;;;;;59.17;37.70;;;2.30;99.90;;;;;;5056814;28;20278;-77
2020/12/02 11:36:34;;;;;;;67.50;36.90;;;2.40;99.90;;;;;;5056357;28;20207;-78
2020/12/02 11:39:11;;;;;;;60.92;38.80;;;2.40;99.90;;;;;;5056169;28;20310;-77
2020/12/02 11:41:44;;;;;;;64.10;37.25;;;2.40;99.90;;;;;;5057558;28;20221;-77
2020/12/02 11:44:22;;;;;;;62.17;36.38;;;2.40;99.90;;;;;;5056844;28;20184;-77
2020/12/02 11:46:56;;;;;;;65.45;37.90;;;2.40;99.90;;;;;;5056381;28;20619;-77
2020/12/02 11:49:33;;;;;;;54.97;36.03;;;2.50;99.90;;;;;;5056158;28;20703;-77
2020/12/02 11:52:08;;;;;;;68.88;38.90;;;2.70;99.90;;;;;;5055912;28;20195;-77
2020/12/02 11:54:35;;;;;;;63.88;35.95;;;2.60;99.90;;;;;;5055529;28;20213;-77
2020/12/02 11:57:03;;;;;;;64.45;40.17;;;2.50;99.90;;;;;;5060075;28;20503;-77
2020/12/02 11:59:32;;;;;;;63.53;39.70;;;2.60;99.90;;;;;;5062037;28;20610;-76
2020/12/02 12:02:21;;;;;;;58.35;37.20;;;2.40;99.90;;;;;;5062733;28;20651;-76
2020/12/02 12:04:57;;;;;;;61.05;37.55;;;2.40;99.90;;;;;;5063448;28;20194;-77
2020/12/02 12:07:33;;;;;;;57.33;36.47;;;2.50;99.90;;;;;;5061163;28;20197;-77
2020/12/02 12:10:06;;;;;;;64.95;36.95;;;2.40;99.90;;;;;;5060479;28;20193;-77
2020/12/02 12:12:42;;;;;;;57.55;36.42;;;2.50;99.90;;;;;;5060451;28;20274;-76
2020/12/02 12:15:20;;;;;;;64.22;38.13;;;2.50;99.90;;;;;;5058127;28;20211;-77
2020/12/02 12:17:49;;;;;;;63.65;41.30;;;2.60;99.90;;;;;;5054639;28;20493;-77
2020/12/02 12:20:18;;;;;;;62.10;39.85;;;2.60;99.90;;;;;;5056125;28;20199;-77
2020/12/02 12:22:51;;;;;;;59.63;36.15;;;2.70;99.90;;;;;;5055837;28;20693;-78
2020/12/02 12:25:24;;;;;;;63.30;36.42;;;2.50;99.90;;;;;;5056166;28;20587;-78
2020/12/02 12:27:58;;;;;;;57.28;34.42;;;2.50;99.90;;;;;;5056024;28;20306;-77
2020/12/02 12:30:24;;;;;;;55.30;33.20;;;2.50;99.90;;;;;;5055908;28;20222;-78
2020/12/02 12:33:01;;;;;;;56.78;34.90;;;2.60;99.90;;;;;;5057469;28;20257;-78
2020/12/02 12:35:32;;;;;;;56.10;36.15;;;2.70;99.90;;;;;;5056466;28;20239;-78
2020/12/02 12:38:21;;;;;;;55.85;36.72;;;2.70;99.90;;;;;;5056061;28;20640;-78
2020/12/02 12:40:52;;;;;;;62.70;36.20;;;2.70;99.90;;;;;;5056580;28;20199;-78
2020/12/02 12:43:24;;;;;;;54.70;34.42;;;2.80;99.90;;;;;;5058377;28;20274;-78
2020/12/02 12:46:03;;;;;;;54.28;34.72;;;2.70;99.90;;;;;;5057883;28;20603;-76
2020/12/02 12:48:29;;;;;;;54.45;34.33;;;2.70;99.90;;;;;;5056891;28;20227;-77
2020/12/02 12:51:00;;;;;;;54.00;32.42;;;2.90;99.90;;;;;;5056592;28;20187;-77
2020/12/02 12:53:26;;;;;;;55.60;33.08;;;2.90;99.90;;;;;;5055756;28;20223;-77
2020/12/02 12:55:54;;;;;;;54.65;33.95;;;2.90;99.90;;;;;;5056281;28;20247;-77
2020/12/02 12:58:20;;;;;;;50.13;31.55;;;2.80;99.90;;;;;;5057157;28;20227;-77